Time;durP1;ratioP1;P1;durP2;ratioP2;P2;SDS_P1;SDS_P2;PMS_P1;PMS_P2;Temp;Humidity;BMP_temperature;BMP_pressure;BME280_temperature;BME280_humidity;BME280_pressure;Samples;Min_cycle;Max_cycle;Signal;HPM_P1;HPM_P2
2023/10/12 00:02:00;;;;;;;17.17;14.63;;;;;;;;;;2610441;54;20376;-73
2023/10/12 00:04:43;;;;;;;14.13;13.00;;;;;;;;;;2610300;31;21002;-74
2023/10/12 00:10:42;;;;;;;13.77;12.10;;;;;;;;;;2608084;39;20835;-73
2023/10/12 00:12:47;;;;;;;14.37;13.07;;;;;;;;;;2607767;54;20440;-72
2023/10/12 00:17:46;;;;;;;13.93;12.70;;;;;;;;;;2608758;54;20387;-73
2023/10/12 00:20:32;;;;;;;14.17;13.10;;;;;;;;;;2608857;54;20439;-75
2023/10/12 00:23:09;;;;;;;15.20;13.63;;;;;;;;;;2608609;39;21097;-73
2023/10/12 00:25:41;;;;;;;16.67;14.20;;;;;;;;;;2608711;54;20511;-73
2023/10/12 00:28:07;;;;;;;13.77;12.70;;;;;;;;;;2610098;54;20420;-74
2023/10/12 00:30:33;;;;;;;15.23;13.50;;;;;;;;;;2608049;54;20463;-73
2023/10/12 00:32:59;;;;;;;14.50;13.20;;;;;;;;;;2608405;54;20434;-75
2023/10/12 00:35:25;;;;;;;12.83;11.83;;;;;;;;;;2608397;54;20510;-73
2023/10/12 00:37:54;;;;;;;13.03;11.97;;;;;;;;;;2610582;49;20419;-74
2023/10/12 00:40:26;;;;;;;14.00;12.57;;;;;;;;;;2610111;54;20562;-73
2023/10/12 00:42:53;;;;;;;13.50;12.10;;;;;;;;;;2609569;54;20545;-73
2023/10/12 00:45:29;;;;;;;13.47;12.33;;;;;;;;;;2610547;54;20430;-74
2023/10/12 00:48:06;;;;;;;13.83;12.43;;;;;;;;;;2610032;54;20407;-74
2023/10/12 00:50:33;;;;;;;13.20;12.00;;;;;;;;;;2612045;54;20914;-73
2023/10/12 00:53:14;;;;;;;14.87;12.63;;;;;;;;;;2610938;54;20383;-71
2023/10/12 00:55:41;;;;;;;14.43;12.90;;;;;;;;;;2611395;39;21044;-74
2023/10/12 00:58:10;;;;;;;19.33;13.73;;;;;;;;;;2614637;54;20435;-74
2023/10/12 01:00:46;;;;;;;12.77;11.53;;;;;;;;;;2615387;47;21325;-74
2023/10/12 01:06:15;;;;;;;12.17;10.90;;;;;;;;;;2616374;54;20403;-74
2023/10/12 01:08:46;;;;;;;12.00;10.80;;;;;;;;;;2615703;47;20403;-74
2023/10/12 01:11:34;;;;;;;15.90;12.07;;;;;;;;;;2615907;54;20420;-73
2023/10/12 01:16:45;;;;;;;12.93;11.80;;;;;;;;;;2616165;54;20408;-73
2023/10/12 01:19:23;;;;;;;13.13;11.80;;;;;;;;;;2614912;54;20407;-73
2023/10/12 01:21:54;;;;;;;11.70;10.70;;;;;;;;;;2616067;39;20834;-73
2023/10/12 01:24:29;;;;;;;12.33;11.33;;;;;;;;;;2614921;46;20415;-73
2023/10/12 01:27:06;;;;;;;13.27;12.07;;;;;;;;;;2615199;46;20937;-76
2023/10/12 01:29:32;;;;;;;12.80;11.67;;;;;;;;;;2615102;54;20403;-74
2023/10/12 01:32:21;;;;;;;12.60;11.70;;;;;;;;;;2616416;54;20418;-72
2023/10/12 01:34:55;;;;;;;15.83;11.70;;;;;;;;;;2616017;54;20459;-72
2023/10/12 01:37:22;;;;;;;14.90;13.60;;;;;;;;;;2615267;47;20562;-73
2023/10/12 01:39:57;;;;;;;14.20;12.77;;;;;;;;;;2615158;47;20420;-74
2023/10/12 01:42:35;;;;;;;15.00;13.40;;;;;;;;;;2615781;47;20988;-74
2023/10/12 01:45:06;;;;;;;13.23;11.93;;;;;;;;;;2616411;54;20419;-73
2023/10/12 01:47:37;;;;;;;13.63;12.23;;;;;;;;;;2616025;54;20499;-73
2023/10/12 01:50:05;;;;;;;18.27;14.50;;;;;;;;;;2616146;54;20519;-74
2023/10/12 01:52:34;;;;;;;13.53;10.60;;;;;;;;;;2616022;54;20412;-74
2023/10/12 01:55:15;;;;;;;12.63;11.20;;;;;;;;;;2615450;54;20419;-74
2023/10/12 01:57:47;;;;;;;17.30;11.37;;;;;;;;;;2615214;39;20846;-74
2023/10/12 02:00:15;;;;;;;12.43;10.90;;;;;;;;;;2615108;54;20510;-73
2023/10/12 02:02:50;;;;;;;19.70;11.27;;;;;;;;;;2614830;47;20423;-73
2023/10/12 02:05:24;;;;;;;12.73;10.97;;;;;;;;;;2614519;47;20447;-73
2023/10/12 02:07:52;;;;;;;14.60;9.80;;;;;;;;;;2609908;54;20423;-75
2023/10/12 02:10:18;;;;;;;13.57;10.43;;;;;;;;;;2610070;39;20821;-74
2023/10/12 02:12:46;;;;;;;13.13;9.93;;;;;;;;;;2610613;54;20396;-75
2023/10/12 02:15:16;;;;;;;16.43;14.70;;;;;;;;;;2609400;54;20525;-74
2023/10/12 02:17:49;;;;;;;21.07;16.87;;;;;;;;;;2610616;54;20402;-73
2023/10/12 02:20:18;;;;;;;20.33;16.13;;;;;;;;;;2611692;54;20431;-73
2023/10/12 02:22:44;;;;;;;22.43;14.23;;;;;;;;;;2609667;54;20399;-74
2023/10/12 02:27:49;;;;;;;24.30;16.70;;;;;;;;;;2610998;54;20395;-74
2023/10/12 02:30:21;;;;;;;15.80;14.10;;;;;;;;;;2609025;47;20403;-74
2023/10/12 02:32:54;;;;;;;26.33;15.80;;;;;;;;;;2609943;54;20399;-74
2023/10/12 02:35:22;;;;;;;22.87;18.43;;;;;;;;;;2611057;54;20415;-74
2023/10/12 02:37:50;;;;;;;25.60;17.93;;;;;;;;;;2611627;54;20434;-75
2023/10/12 02:40:16;;;;;;;24.23;16.80;;;;;;;;;;2611372;39;20841;-75
2023/10/12 02:42:45;;;;;;;21.53;16.33;;;;;;;;;;2609998;54;20388;-75
2023/10/12 02:45:21;;;;;;;21.90;15.53;;;;;;;;;;2609807;39;20889;-74
2023/10/12 02:47:47;;;;;;;22.07;16.17;;;;;;;;;;2609867;39;20739;-75
2023/10/12 02:52:43;;;;;;;28.53;18.27;;;;;;;;;;2611473;54;20407;-74
2023/10/12 02:58:07;;;;;;;23.60;18.30;;;;;;;;;;2608256;54;20426;-74
2023/10/12 03:03:07;;;;;;;29.83;18.00;;;;;;;;;;2610363;54;20492;-74
2023/10/12 03:05:45;;;;;;;28.33;17.40;;;;;;;;;;2609858;54;20430;-73
2023/10/12 03:08:14;;;;;;;25.07;16.00;;;;;;;;;;2609111;54;20423;-74
2023/10/12 03:13:25;;;;;;;21.07;15.23;;;;;;;;;;2609291;54;20499;-73
2023/10/12 03:16:03;;;;;;;20.80;14.33;;;;;;;;;;2610164;54;20435;-73
2023/10/12 03:18:32;;;;;;;23.00;13.80;;;;;;;;;;2611522;54;20446;-74
2023/10/12 03:21:14;;;;;;;17.60;13.57;;;;;;;;;;2611454;47;20439;-74
2023/10/12 03:23:40;;;;;;;23.47;14.10;;;;;;;;;;2613401;54;20430;-74
2023/10/12 03:26:28;;;;;;;14.07;12.57;;;;;;;;;;2614356;54;20399;-74
2023/10/12 03:29:01;;;;;;;18.30;14.47;;;;;;;;;;2614035;47;20451;-74
2023/10/12 03:31:51;;;;;;;18.63;13.40;;;;;;;;;;2613663;54;20420;-74
2023/10/12 03:34:53;;;;;;;14.20;11.60;;;;;;;;;;2613900;39;21021;-73
2023/10/12 03:37:19;;;;;;;20.57;13.83;;;;;;;;;;2614231;54;20585;-75
2023/10/12 03:45:07;;;;;;;20.20;14.27;;;;;;;;;;2612152;54;20514;-74
2023/10/12 03:47:46;;;;;;;21.87;15.27;;;;;;;;;;2611031;54;20415;-74
2023/10/12 03:50:17;;;;;;;21.13;13.93;;;;;;;;;;2612170;39;20861;-75
2023/10/12 03:52:52;;;;;;;23.70;14.67;;;;;;;;;;2612235;54;20415;-74
2023/10/12 03:55:27;;;;;;;18.87;16.40;;;;;;;;;;2610552;54;20526;-74
2023/10/12 03:58:00;;;;;;;20.47;14.83;;;;;;;;;;2611553;39;21133;-74
2023/10/12 04:03:34;;;;;;;25.80;14.43;;;;;;;;;;2611614;31;20873;-74
2023/10/12 04:06:06;;;;;;;24.70;13.33;;;;;;;;;;2609855;46;20436;-75
2023/10/12 04:21:18;;;;;;;19.13;14.67;;;;;;;;;;2610822;54;20408;-75
2023/10/12 04:28:42;;;;;;;17.70;13.30;;;;;;;;;;2614316;54;20919;-74
2023/10/12 04:33:49;;;;;;;20.90;15.13;;;;;;;;;;2612706;54;20404;-75
2023/10/12 04:36:33;;;;;;;19.90;14.33;;;;;;;;;;2611229;51;20408;-76
2023/10/12 04:41:38;;;;;;;21.30;13.80;;;;;;;;;;2610510;54;20395;-74
2023/10/12 04:47:09;;;;;;;24.87;14.87;;;;;;;;;;2608711;54;20421;-75
2023/10/12 04:54:31;;;;;;;17.90;13.17;;;;;;;;;;2608637;54;20498;-74
2023/10/12 04:59:43;;;;;;;21.20;13.37;;;;;;;;;;2608936;54;20495;-74
2023/10/12 05:05:01;;;;;;;22.43;16.40;;;;;;;;;;2608729;54;20425;-73
2023/10/12 05:07:27;;;;;;;20.67;13.50;;;;;;;;;;2609339;47;20430;-74
2023/10/12 05:09:54;;;;;;;26.40;14.70;;;;;;;;;;2608832;54;20423;-71
2023/10/12 05:12:25;;;;;;;21.23;12.40;;;;;;;;;;2608089;47;20427;-76
2023/10/12 05:15:00;;;;;;;28.43;14.63;;;;;;;;;;2608471;54;20412;-73
2023/10/12 05:17:28;;;;;;;22.47;12.97;;;;;;;;;;2608677;54;20391;-73
2023/10/12 05:19:54;;;;;;;17.70;13.97;;;;;;;;;;2608278;54;20965;-73
2023/10/12 05:22:22;;;;;;;25.93;16.00;;;;;;;;;;2608435;54;20419;-72
2023/10/12 05:24:48;;;;;;;22.93;15.00;;;;;;;;;;2608913;46;20425;-74
2023/10/12 05:27:24;;;;;;;18.57;14.23;;;;;;;;;;2610419;54;20404;-73
2023/10/12 05:29:59;;;;;;;17.77;13.27;;;;;;;;;;2610420;54;20549;-75
2023/10/12 05:35:49;;;;;;;23.60;13.40;;;;;;;;;;2609315;54;21353;-72
2023/10/12 05:38:10;;;;;;;17.37;12.70;;;;;;;;;;2610137;54;20462;-73
2023/10/12 05:40:42;;;;;;;19.10;13.43;;;;;;;;;;2610818;54;20423;-75
2023/10/12 05:43:18;;;;;;;20.60;14.10;;;;;;;;;;2609085;54;20404;-77
2023/10/12 05:45:45;;;;;;;18.73;14.30;;;;;;;;;;2609918;54;20403;-73
2023/10/12 05:48:14;;;;;;;25.10;14.93;;;;;;;;;;2609547;54;20446;-75
2023/10/12 05:50:42;;;;;;;18.27;12.70;;;;;;;;;;2610019;54;20967;-74
2023/10/12 05:53:08;;;;;;;20.23;13.43;;;;;;;;;;2612674;54;21027;-74
2023/10/12 05:55:35;;;;;;;20.00;14.00;;;;;;;;;;2608163;39;20813;-74
2023/10/12 05:58:11;;;;;;;25.40;12.67;;;;;;;;;;2609388;54;20438;-76
2023/10/12 06:00:44;;;;;;;23.37;14.60;;;;;;;;;;2609489;54;20402;-75
2023/10/12 06:03:31;;;;;;;18.60;12.40;;;;;;;;;;2608364;54;20409;-75
2023/10/12 06:05:56;;;;;;;22.43;14.33;;;;;;;;;;2609491;54;20431;-74
2023/10/12 06:08:25;;;;;;;23.17;15.47;;;;;;;;;;2608783;54;20415;-74
2023/10/12 06:10:54;;;;;;;20.50;14.47;;;;;;;;;;2609612;39;20832;-75
2023/10/12 06:13:30;;;;;;;21.57;14.20;;;;;;;;;;2609424;39;20965;-75
2023/10/12 06:15:56;;;;;;;18.20;13.60;;;;;;;;;;2609013;54;20387;-75
2023/10/12 06:18:30;;;;;;;18.13;13.57;;;;;;;;;;2608279;54;20946;-79
2023/10/12 06:21:05;;;;;;;20.27;14.53;;;;;;;;;;2609714;47;20430;-76
2023/10/12 06:23:39;;;;;;;18.00;14.23;;;;;;;;;;2610447;46;20484;-76
2023/10/12 06:26:09;;;;;;;19.40;12.63;;;;;;;;;;2610346;54;20468;-76
2023/10/12 06:28:38;;;;;;;20.73;14.67;;;;;;;;;;2610635;54;20496;-76
2023/10/12 06:31:04;;;;;;;24.35;15.50;;;;;;;;;;2612920;54;20961;-76
2023/10/12 06:33:31;;;;;;;21.17;13.90;;;;;;;;;;2612977;54;21339;-75
2023/10/12 06:35:59;;;;;;;18.20;12.43;;;;;;;;;;2612628;54;21266;-75
2023/10/12 06:38:47;;;;;;;19.30;12.67;;;;;;;;;;2613364;54;20427;-76
2023/10/12 06:43:58;;;;;;;23.93;14.20;;;;;;;;;;2613077;54;20408;-76
2023/10/12 06:46:28;;;;;;;19.40;12.07;;;;;;;;;;2612696;54;20418;-75
2023/10/12 06:49:00;;;;;;;22.40;12.73;;;;;;;;;;2611401;54;20419;-75
2023/10/12 06:51:28;;;;;;;19.67;12.53;;;;;;;;;;2612751;54;20426;-76
2023/10/12 06:54:06;;;;;;;19.83;12.27;;;;;;;;;;2612509;54;20415;-76
2023/10/12 06:56:38;;;;;;;29.13;12.83;;;;;;;;;;2613336;54;20463;-76
2023/10/12 06:59:21;;;;;;;20.80;12.57;;;;;;;;;;2611971;54;20412;-75
2023/10/12 07:04:18;;;;;;;15.10;11.07;;;;;;;;;;2611480;54;20434;-75
2023/10/12 07:06:56;;;;;;;16.83;9.10;;;;;;;;;;2612411;39;20893;-76
2023/10/12 07:09:38;;;;;;;18.13;11.00;;;;;;;;;;2612416;54;20420;-77
2023/10/12 07:12:05;;;;;;;14.43;9.20;;;;;;;;;;2612179;39;20752;-76
2023/10/12 07:14:37;;;;;;;17.57;10.00;;;;;;;;;;2612622;54;20431;-76
2023/10/12 07:17:04;;;;;;;14.30;9.80;;;;;;;;;;2610494;54;20439;-77
2023/10/12 07:19:30;;;;;;;13.33;8.10;;;;;;;;;;2611587;54;20404;-77
2023/10/12 07:22:01;;;;;;;20.50;11.97;;;;;;;;;;2611761;54;20419;-76
2023/10/12 07:24:33;;;;;;;19.97;13.40;;;;;;;;;;2613065;39;21004;-77
2023/10/12 07:27:10;;;;;;;18.83;11.00;;;;;;;;;;2611810;54;20515;-76
2023/10/12 07:29:37;;;;;;;20.60;11.33;;;;;;;;;;2612093;39;20856;-77
2023/10/12 07:32:31;;;;;;;15.70;10.43;;;;;;;;;;2612119;47;20985;-75
2023/10/12 07:35:02;;;;;;;27.43;11.20;;;;;;;;;;2611255;50;20408;-76
2023/10/12 07:37:31;;;;;;;15.10;12.20;;;;;;;;;;2612189;54;20471;-75
2023/10/12 07:40:16;;;;;;;20.10;11.73;;;;;;;;;;2612133;47;20445;-76
2023/10/12 07:42:46;;;;;;;23.97;10.40;;;;;;;;;;2612611;54;20431;-76
2023/10/12 07:45:14;;;;;;;20.67;11.60;;;;;;;;;;2611722;54;20442;-75
2023/10/12 07:47:41;;;;;;;17.13;10.50;;;;;;;;;;2613322;47;20415;-76
2023/10/12 07:50:12;;;;;;;16.30;9.63;;;;;;;;;;2614767;39;21064;-76
2023/10/12 07:52:39;;;;;;;14.20;10.83;;;;;;;;;;2613577;54;20466;-75
2023/10/12 07:55:15;;;;;;;17.60;10.27;;;;;;;;;;2613998;54;20427;-76
2023/10/12 07:57:42;;;;;;;16.10;10.03;;;;;;;;;;2614703;39;20825;-75
2023/10/12 08:13:14;;;;;;;16.20;10.27;;;;;;;;;;2614279;54;21023;-76
2023/10/12 08:21:16;;;;;;;17.80;11.40;;;;;;;;;;2612665;54;20407;-75
2023/10/12 08:23:49;;;;;;;15.40;10.20;;;;;;;;;;2613626;54;20419;-74
2023/10/12 08:26:35;;;;;;;16.97;10.93;;;;;;;;;;2613315;51;20457;-73
2023/10/12 08:29:08;;;;;;;19.83;11.63;;;;;;;;;;2614044;39;21088;-76
2023/10/12 08:31:42;;;;;;;21.83;13.23;;;;;;;;;;2614180;54;20474;-76
2023/10/12 08:39:53;;;;;;;17.70;10.30;;;;;;;;;;2613820;54;21065;-75
2023/10/12 08:44:53;;;;;;;16.40;10.70;;;;;;;;;;2614437;54;20431;-76
2023/10/12 08:47:31;;;;;;;18.33;9.93;;;;;;;;;;2614669;54;20409;-75
2023/10/12 08:52:30;;;;;;;13.00;9.13;;;;;;;;;;2614316;54;20384;-76
2023/10/12 08:55:11;;;;;;;16.07;11.47;;;;;;;;;;2612715;54;20540;-75
2023/10/12 08:57:43;;;;;;;13.40;10.13;;;;;;;;;;2614517;39;20830;-75
2023/10/12 09:03:00;;;;;;;13.63;9.47;;;;;;;;;;2614761;54;20414;-76
2023/10/12 09:05:28;;;;;;;17.40;9.80;;;;;;;;;;2613698;54;20418;-76
2023/10/12 09:10:55;;;;;;;15.40;9.50;;;;;;;;;;2610041;47;20396;-76
2023/10/12 09:13:34;;;;;;;22.90;12.07;;;;;;;;;;2609746;54;20391;-76
2023/10/12 09:16:03;;;;;;;17.07;10.13;;;;;;;;;;2609616;54;20506;-76
2023/10/12 09:18:34;;;;;;;13.93;9.80;;;;;;;;;;2611251;54;20450;-76
2023/10/12 09:28:48;;;;;;;15.23;10.57;;;;;;;;;;2612454;54;20427;-76
2023/10/12 09:36:38;;;;;;;14.20;10.37;;;;;;;;;;2611809;54;20399;-77
2023/10/12 09:39:11;;;;;;;13.17;9.90;;;;;;;;;;2611953;54;20459;-76
2023/10/12 09:41:40;;;;;;;22.37;10.70;;;;;;;;;;2611481;54;20407;-76
2023/10/12 09:44:11;;;;;;;12.77;9.33;;;;;;;;;;2611164;54;20950;-75
2023/10/12 09:46:47;;;;;;;13.23;9.87;;;;;;;;;;2610052;46;20519;-76
2023/10/12 09:49:22;;;;;;;20.43;11.63;;;;;;;;;;2613202;54;20403;-75
2023/10/12 09:51:59;;;;;;;14.80;9.03;;;;;;;;;;2611935;54;20450;-74
2023/10/12 09:54:46;;;;;;;13.73;8.97;;;;;;;;;;2612054;54;20442;-75
2023/10/12 09:57:26;;;;;;;16.30;10.60;;;;;;;;;;2612859;54;20463;-75
2023/10/12 09:59:59;;;;;;;15.73;9.90;;;;;;;;;;2613407;39;20919;-75
2023/10/12 10:02:28;;;;;;;17.13;10.00;;;;;;;;;;2612187;47;20412;-75
2023/10/12 10:05:11;;;;;;;25.20;10.10;;;;;;;;;;2613395;54;20407;-75
2023/10/12 10:07:39;;;;;;;19.87;10.50;;;;;;;;;;2612373;46;20436;-74
2023/10/12 10:10:06;;;;;;;14.47;8.97;;;;;;;;;;2611131;54;20410;-75
2023/10/12 10:12:42;;;;;;;15.40;9.67;;;;;;;;;;2612902;54;20978;-75
2023/10/12 10:15:20;;;;;;;14.90;8.27;;;;;;;;;;2613290;54;20399;-76
2023/10/12 10:17:52;;;;;;;15.97;11.50;;;;;;;;;;2613245;39;21232;-76
2023/10/12 10:22:59;;;;;;;17.80;10.13;;;;;;;;;;2613416;54;20388;-76
2023/10/12 10:25:34;;;;;;;13.90;8.57;;;;;;;;;;2613199;39;20841;-76
2023/10/12 10:28:13;;;;;;;14.67;8.93;;;;;;;;;;2612784;54;20409;-76
2023/10/12 10:30:49;;;;;;;19.63;10.47;;;;;;;;;;2612167;47;20411;-76
2023/10/12 10:33:20;;;;;;;19.30;9.50;;;;;;;;;;2613570;54;20383;-76
2023/10/12 10:38:54;;;;;;;14.60;9.20;;;;;;;;;;2613446;54;20391;-75
2023/10/12 10:44:15;;;;;;;13.03;9.80;;;;;;;;;;2613193;54;20415;-76
2023/10/12 10:46:44;;;;;;;10.83;8.47;;;;;;;;;;2613030;54;20965;-75
2023/10/12 10:49:15;;;;;;;17.80;9.07;;;;;;;;;;2612341;47;20419;-75
2023/10/12 10:51:42;;;;;;;13.40;8.53;;;;;;;;;;2612199;47;20424;-76
2023/10/12 10:54:18;;;;;;;15.33;8.77;;;;;;;;;;2612720;54;20411;-76
2023/10/12 10:56:47;;;;;;;17.70;9.00;;;;;;;;;;2612775;54;20427;-74
2023/10/12 10:59:18;;;;;;;21.60;9.97;;;;;;;;;;2613955;54;20426;-75
2023/10/12 11:01:49;;;;;;;12.23;9.17;;;;;;;;;;2615173;39;20509;-75
2023/10/12 11:04:46;;;;;;;9.70;8.63;;;;;;;;;;2614958;47;20970;-75
2023/10/12 11:07:12;;;;;;;13.67;8.87;;;;;;;;;;2615250;47;20431;-75
2023/10/12 11:12:21;;;;;;;40.20;12.10;;;;;;;;;;2615724;39;20466;-74
2023/10/12 11:17:40;;;;;;;15.37;8.60;;;;;;;;;;2614567;54;20415;-75
2023/10/12 11:20:08;;;;;;;24.87;8.53;;;;;;;;;;2613958;39;21271;-74
2023/10/12 11:22:37;;;;;;;13.70;8.80;;;;;;;;;;2614429;54;20431;-75
2023/10/12 11:25:04;;;;;;;12.60;9.00;;;;;;;;;;2614710;39;20476;-75
2023/10/12 11:27:36;;;;;;;17.17;10.20;;;;;;;;;;2613655;47;20453;-76
2023/10/12 11:30:08;;;;;;;11.30;8.97;;;;;;;;;;2613542;54;20420;-75
2023/10/12 11:32:54;;;;;;;18.27;10.80;;;;;;;;;;2614043;54;20428;-75
2023/10/12 11:35:43;;;;;;;18.80;8.23;;;;;;;;;;2614556;46;20442;-75
2023/10/12 11:38:19;;;;;;;12.93;9.07;;;;;;;;;;2613865;47;21001;-75
2023/10/12 11:40:52;;;;;;;16.33;8.73;;;;;;;;;;2614377;47;20966;-75
2023/10/12 11:43:21;;;;;;;15.63;9.10;;;;;;;;;;2614519;54;20436;-75
2023/10/12 11:46:01;;;;;;;14.00;8.77;;;;;;;;;;2613761;51;20427;-76
2023/10/12 11:48:28;;;;;;;20.80;10.00;;;;;;;;;;2614490;54;20465;-75
2023/10/12 11:50:55;;;;;;;16.30;8.20;;;;;;;;;;2614193;54;20431;-75
2023/10/12 11:53:21;;;;;;;14.70;9.13;;;;;;;;;;2614538;54;20511;-75
2023/10/12 11:55:50;;;;;;;14.23;10.17;;;;;;;;;;2613676;47;20412;-75
2023/10/12 11:58:19;;;;;;;16.73;9.93;;;;;;;;;;2614759;54;20454;-75
2023/10/12 12:00:49;;;;;;;11.10;8.27;;;;;;;;;;2614319;39;20815;-76
2023/10/12 12:03:18;;;;;;;12.93;9.70;;;;;;;;;;2614092;46;20483;-75
2023/10/12 12:05:51;;;;;;;13.80;8.93;;;;;;;;;;2613835;47;21165;-75
2023/10/12 12:08:18;;;;;;;19.40;8.93;;;;;;;;;;2614181;39;20807;-74
2023/10/12 12:10:53;;;;;;;15.50;10.53;;;;;;;;;;2612942;47;20464;-73
2023/10/12 12:13:21;;;;;;;17.60;8.60;;;;;;;;;;2612273;54;20415;-73
2023/10/12 12:15:48;;;;;;;14.40;10.23;;;;;;;;;;2612915;31;20876;-74
2023/10/12 12:18:19;;;;;;;16.53;8.37;;;;;;;;;;2612887;47;20410;-73
2023/10/12 12:20:47;;;;;;;15.80;10.13;;;;;;;;;;2612927;54;20431;-74
2023/10/12 12:23:13;;;;;;;18.37;9.43;;;;;;;;;;2612948;54;20420;-73
2023/10/12 12:25:40;;;;;;;15.30;9.00;;;;;;;;;;2613247;54;20424;-73
2023/10/12 12:28:07;;;;;;;15.70;9.60;;;;;;;;;;2613614;54;20411;-73
2023/10/12 12:30:45;;;;;;;17.37;9.87;;;;;;;;;;2612888;54;20427;-73
2023/10/12 12:33:17;;;;;;;16.90;10.53;;;;;;;;;;2613788;54;20416;-73
2023/10/12 12:35:59;;;;;;;21.80;10.27;;;;;;;;;;2614802;54;20975;-73
2023/10/12 12:38:40;;;;;;;13.80;9.97;;;;;;;;;;2615057;54;20507;-76
2023/10/12 12:41:19;;;;;;;11.97;9.67;;;;;;;;;;2614612;39;20837;-74
2023/10/12 12:43:58;;;;;;;17.30;10.30;;;;;;;;;;2616313;39;20858;-73
2023/10/12 12:46:29;;;;;;;15.87;11.07;;;;;;;;;;2614878;46;20861;-76
2023/10/12 12:48:55;;;;;;;19.87;10.67;;;;;;;;;;2615681;54;20483;-73
2023/10/12 12:51:22;;;;;;;17.07;9.87;;;;;;;;;;2615362;39;20833;-73
2023/10/12 12:53:50;;;;;;;15.67;11.13;;;;;;;;;;2614993;54;20963;-75
2023/10/12 12:56:17;;;;;;;18.37;10.73;;;;;;;;;;2615592;39;20816;-72
2023/10/12 12:58:46;;;;;;;16.37;11.60;;;;;;;;;;2614828;39;20801;-74
2023/10/12 13:01:23;;;;;;;16.63;11.13;;;;;;;;;;2612797;31;20888;-75
2023/10/12 13:03:52;;;;;;;20.20;12.87;;;;;;;;;;2613431;54;20438;-76
2023/10/12 13:06:19;;;;;;;16.70;12.20;;;;;;;;;;2612748;54;20451;-74
2023/10/12 13:08:46;;;;;;;23.00;13.03;;;;;;;;;;2613186;39;20802;-75
2023/10/12 13:11:17;;;;;;;14.27;12.53;;;;;;;;;;2612414;54;20423;-76
2023/10/12 13:13:43;;;;;;;13.40;11.70;;;;;;;;;;2612514;54;20420;-75
2023/10/12 13:16:14;;;;;;;19.50;13.00;;;;;;;;;;2611764;47;20431;-75
2023/10/12 13:18:46;;;;;;;17.60;12.43;;;;;;;;;;2612395;47;20539;-75
2023/10/12 13:21:14;;;;;;;21.50;12.57;;;;;;;;;;2612441;54;20454;-74
2023/10/12 13:23:40;;;;;;;18.13;12.30;;;;;;;;;;2611719;54;20436;-75
2023/10/12 13:26:08;;;;;;;16.20;13.17;;;;;;;;;;2612768;54;20524;-76
2023/10/12 13:28:35;;;;;;;16.40;12.07;;;;;;;;;;2612476;54;20420;-75
2023/10/12 13:31:01;;;;;;;17.63;12.30;;;;;;;;;;2613340;54;20408;-74
2023/10/12 13:33:31;;;;;;;16.33;11.70;;;;;;;;;;2614216;54;20431;-74
2023/10/12 13:35:57;;;;;;;12.27;10.57;;;;;;;;;;2613155;54;20450;-77
2023/10/12 13:38:24;;;;;;;13.53;10.87;;;;;;;;;;2612376;54;20434;-75
2023/10/12 13:40:50;;;;;;;16.00;13.30;;;;;;;;;;2611727;50;20458;-76
2023/10/12 13:43:26;;;;;;;23.23;11.47;;;;;;;;;;2612975;46;20431;-76
2023/10/12 13:45:54;;;;;;;20.97;13.30;;;;;;;;;;2611640;54;20411;-77
2023/10/12 13:48:22;;;;;;;20.93;11.70;;;;;;;;;;2610710;54;20423;-77
2023/10/12 13:50:52;;;;;;;17.37;11.80;;;;;;;;;;2613641;46;20918;-76
2023/10/12 13:53:19;;;;;;;16.33;10.47;;;;;;;;;;2612459;39;20967;-76
2023/10/12 13:55:47;;;;;;;15.50;11.30;;;;;;;;;;2612817;54;20458;-75
2023/10/12 13:58:14;;;;;;;14.27;12.20;;;;;;;;;;2612605;54;20539;-76
2023/10/12 14:00:40;;;;;;;17.30;12.03;;;;;;;;;;2613739;54;20411;-76
2023/10/12 14:03:17;;;;;;;16.10;11.67;;;;;;;;;;2613371;54;20439;-76
2023/10/12 14:05:43;;;;;;;18.40;11.23;;;;;;;;;;2614692;39;20812;-76
2023/10/12 14:08:12;;;;;;;14.90;11.80;;;;;;;;;;2613625;47;20420;-76
2023/10/12 14:10:41;;;;;;;18.20;11.03;;;;;;;;;;2614555;54;20423;-76
2023/10/12 14:13:13;;;;;;;20.53;11.50;;;;;;;;;;2613158;54;20435;-75
2023/10/12 14:15:43;;;;;;;14.37;10.70;;;;;;;;;;2614160;54;20432;-74
2023/10/12 14:18:16;;;;;;;18.03;11.00;;;;;;;;;;2614985;54;20528;-75
2023/10/12 14:20:42;;;;;;;14.03;9.77;;;;;;;;;;2613918;54;20395;-76
2023/10/12 14:23:09;;;;;;;14.43;10.30;;;;;;;;;;2612217;54;20449;-77
2023/10/12 14:25:37;;;;;;;19.63;11.00;;;;;;;;;;2611489;54;21032;-76
2023/10/12 14:28:05;;;;;;;15.27;11.30;;;;;;;;;;2611566;54;20454;-76
2023/10/12 14:30:32;;;;;;;15.37;11.17;;;;;;;;;;2611061;54;20415;-76
2023/10/12 14:33:02;;;;;;;15.90;9.30;;;;;;;;;;2609081;54;20400;-76
2023/10/12 14:35:28;;;;;;;15.57;10.50;;;;;;;;;;2610017;46;20970;-76
2023/10/12 14:37:55;;;;;;;13.50;10.70;;;;;;;;;;2609619;54;20478;-77
2023/10/12 14:40:31;;;;;;;13.67;10.23;;;;;;;;;;2610617;54;20966;-75
2023/10/12 14:43:05;;;;;;;13.67;10.73;;;;;;;;;;2610495;54;21123;-76
2023/10/12 14:45:32;;;;;;;14.53;9.47;;;;;;;;;;2611400;54;20419;-76
2023/10/12 14:47:59;;;;;;;11.00;9.23;;;;;;;;;;2611140;54;20387;-76
2023/10/12 14:50:25;;;;;;;16.93;11.20;;;;;;;;;;2611840;39;22221;-76
2023/10/12 14:52:53;;;;;;;12.57;9.53;;;;;;;;;;2611027;54;20431;-75
2023/10/12 14:55:20;;;;;;;14.90;9.80;;;;;;;;;;2611841;54;20404;-76
2023/10/12 14:57:50;;;;;;;12.30;8.90;;;;;;;;;;2610616;54;21048;-77
2023/10/12 15:00:22;;;;;;;13.00;9.00;;;;;;;;;;2611675;54;20411;-75
2023/10/12 15:02:57;;;;;;;14.33;9.50;;;;;;;;;;2611511;54;20519;-74
2023/10/12 15:05:28;;;;;;;13.53;8.80;;;;;;;;;;2613009;54;20395;-73
2023/10/12 15:07:58;;;;;;;11.57;8.40;;;;;;;;;;2613573;46;20471;-74
2023/10/12 15:10:25;;;;;;;13.37;8.77;;;;;;;;;;2614180;54;20410;-74
2023/10/12 15:12:52;;;;;;;13.90;9.80;;;;;;;;;;2613049;39;20816;-73
2023/10/12 15:15:25;;;;;;;11.10;9.13;;;;;;;;;;2613266;46;20445;-74
2023/10/12 15:17:54;;;;;;;12.30;9.50;;;;;;;;;;2613909;46;20454;-74
2023/10/12 15:20:22;;;;;;;14.37;9.30;;;;;;;;;;2613151;54;20483;-75
2023/10/12 15:22:49;;;;;;;13.27;9.53;;;;;;;;;;2612045;54;20420;-72
2023/10/12 15:25:19;;;;;;;14.37;8.90;;;;;;;;;;2613234;54;20430;-74
2023/10/12 15:27:46;;;;;;;15.20;10.17;;;;;;;;;;2611766;39;21249;-73
2023/10/12 15:30:14;;;;;;;13.13;9.43;;;;;;;;;;2611164;54;21287;-75
2023/10/12 15:32:43;;;;;;;13.63;10.13;;;;;;;;;;2612144;39;20917;-75
2023/10/12 15:35:14;;;;;;;15.03;10.37;;;;;;;;;;2611672;54;20442;-74
2023/10/12 15:37:45;;;;;;;12.63;8.93;;;;;;;;;;2612792;54;20615;-74
2023/10/12 15:40:12;;;;;;;16.13;11.17;;;;;;;;;;2613660;54;20422;-72
2023/10/12 15:42:39;;;;;;;12.10;9.57;;;;;;;;;;2613703;54;20423;-74
2023/10/12 15:45:07;;;;;;;14.60;9.73;;;;;;;;;;2613808;54;20535;-74
2023/10/12 15:47:33;;;;;;;11.77;10.50;;;;;;;;;;2612552;54;20950;-75
2023/10/12 15:49:59;;;;;;;13.97;10.23;;;;;;;;;;2613552;54;20431;-74
2023/10/12 15:52:25;;;;;;;13.13;9.80;;;;;;;;;;2611248;47;20538;-75
2023/10/12 15:54:51;;;;;;;15.67;10.33;;;;;;;;;;2611722;54;20431;-75
2023/10/12 15:57:18;;;;;;;18.83;10.80;;;;;;;;;;2610896;47;20455;-74
2023/10/12 15:59:45;;;;;;;13.17;10.03;;;;;;;;;;2611787;47;20420;-72
2023/10/12 16:02:11;;;;;;;17.00;10.30;;;;;;;;;;2609884;47;20475;-74
2023/10/12 16:04:38;;;;;;;16.40;10.40;;;;;;;;;;2612483;39;21174;-75
2023/10/12 16:07:07;;;;;;;19.03;9.83;;;;;;;;;;2611294;54;20403;-73
2023/10/12 16:09:34;;;;;;;12.20;10.10;;;;;;;;;;2612517;47;20438;-76
2023/10/12 16:12:00;;;;;;;14.20;9.77;;;;;;;;;;2613675;54;20431;-77
2023/10/12 16:14:26;;;;;;;14.70;10.00;;;;;;;;;;2612616;54;20427;-76
2023/10/12 16:16:53;;;;;;;14.70;9.67;;;;;;;;;;2611791;54;21701;-76
2023/10/12 16:19:19;;;;;;;15.40;11.37;;;;;;;;;;2613155;54;21076;-76
2023/10/12 16:21:45;;;;;;;14.17;9.20;;;;;;;;;;2613144;54;20649;-77
2023/10/12 16:24:12;;;;;;;15.40;9.27;;;;;;;;;;2612520;54;20399;-76
2023/10/12 16:26:38;;;;;;;12.93;10.23;;;;;;;;;;2610266;39;20814;-75
2023/10/12 16:29:07;;;;;;;15.47;10.73;;;;;;;;;;2612336;47;20492;-75
2023/10/12 16:31:37;;;;;;;17.77;13.20;;;;;;;;;;2612584;39;20890;-76
2023/10/12 16:34:04;;;;;;;14.83;11.70;;;;;;;;;;2611359;54;20411;-74
2023/10/12 16:36:30;;;;;;;12.30;10.03;;;;;;;;;;2612024;47;20957;-75
2023/10/12 16:38:57;;;;;;;14.13;10.10;;;;;;;;;;2611839;54;21341;-74
2023/10/12 16:41:26;;;;;;;12.90;10.00;;;;;;;;;;2611960;54;20494;-76
2023/10/12 16:43:52;;;;;;;15.37;11.80;;;;;;;;;;2611304;39;20799;-75
2023/10/12 16:46:18;;;;;;;17.80;12.93;;;;;;;;;;2612386;54;20422;-75
2023/10/12 16:48:44;;;;;;;13.47;11.50;;;;;;;;;;2612027;54;20969;-75
2023/10/12 16:51:10;;;;;;;28.03;20.23;;;;;;;;;;2611651;54;20479;-77
2023/10/12 16:53:37;;;;;;;18.87;14.43;;;;;;;;;;2610978;47;20415;-77
2023/10/12 16:56:10;;;;;;;22.20;18.93;;;;;;;;;;2611037;54;20617;-76
2023/10/12 16:58:36;;;;;;;22.83;18.87;;;;;;;;;;2612638;46;20449;-76
2023/10/12 17:01:03;;;;;;;14.17;11.27;;;;;;;;;;2611324;54;20415;-76
2023/10/12 17:03:29;;;;;;;14.07;12.67;;;;;;;;;;2611787;54;20392;-74